createdAt,value
2019-05-19T00:01:49.002Z,17.27
2019-05-19T00:06:53.838Z,18.97
2019-05-19T00:11:58.668Z,19.27
2019-05-19T00:17:03.513Z,22.70
2019-05-19T00:22:08.286Z,19.83
2019-05-19T00:27:13.125Z,18.53
2019-05-19T00:32:17.893Z,19.87
2019-05-19T00:37:22.740Z,18.30
2019-05-19T00:42:28.031Z,19.90
2019-05-19T00:47:32.873Z,19.30
2019-05-19T00:52:37.802Z,19.40
2019-05-19T00:57:42.845Z,19.03
2019-05-19T01:02:47.613Z,20.23
2019-05-19T01:07:53.054Z,19.57
2019-05-19T01:12:58.401Z,19.97
2019-05-19T01:18:03.432Z,20.23
2019-05-19T01:23:08.490Z,18.97
2019-05-19T01:28:13.331Z,19.70
2019-05-19T01:33:18.161Z,19.00
2019-05-19T01:38:23.001Z,18.60
2019-05-19T01:43:28.489Z,19.23
2019-05-19T01:48:33.320Z,18.37
2019-05-19T01:53:38.153Z,17.97
2019-05-19T01:58:43.794Z,18.43
2019-05-19T02:03:49.521Z,16.87
2019-05-19T02:08:54.352Z,18.43
2019-05-19T02:13:59.188Z,17.97
2019-05-19T02:19:04.018Z,17.87
2019-05-19T02:24:08.890Z,17.43
2019-05-19T02:29:14.722Z,16.70
2019-05-19T02:34:19.575Z,16.70
2019-05-19T02:39:24.413Z,17.67
2019-05-19T02:44:30.937Z,16.27
2019-05-19T02:49:36.478Z,17.07
2019-05-19T02:54:41.307Z,15.20
2019-05-19T02:59:46.646Z,16.90
2019-05-19T03:04:51.483Z,16.17
2019-05-19T03:09:56.310Z,16.40
2019-05-19T03:15:01.078Z,17.03
2019-05-19T03:20:07.118Z,18.10
2019-05-19T03:25:12.513Z,16.17
2019-05-19T03:30:35.202Z,19.23
2019-05-19T03:35:40.090Z,18.27
2019-05-19T03:40:44.862Z,16.33
2019-05-19T03:45:49.792Z,17.10
2019-05-19T03:50:54.496Z,16.37
2019-05-19T03:55:59.338Z,16.20
2019-05-19T04:01:04.190Z,16.23
2019-05-19T04:06:09.065Z,18.97
2019-05-19T04:11:13.892Z,17.00
2019-05-19T04:16:18.661Z,16.60
2019-05-19T04:21:23.758Z,15.37
2019-05-19T04:26:28.534Z,15.20
2019-05-19T04:31:33.293Z,15.30
2019-05-19T04:36:38.070Z,14.60
2019-05-19T04:41:42.830Z,14.03
2019-05-19T04:46:47.660Z,13.77
2019-05-19T04:52:05.849Z,14.90
2019-05-19T04:56:58.951Z,12.67
2019-05-19T05:02:03.780Z,15.23
2019-05-19T05:07:08.623Z,13.77
2019-05-19T05:12:13.468Z,13.43
2019-05-19T05:17:18.230Z,13.23
2019-05-19T05:22:23.358Z,12.93
2019-05-19T05:27:28.203Z,13.67
2019-05-19T05:32:32.966Z,12.37
2019-05-19T05:37:37.813Z,12.30
2019-05-19T05:42:42.761Z,11.87
2019-05-19T05:47:47.605Z,12.27
2019-05-19T05:52:52.364Z,11.33
2019-05-19T05:57:57.205Z,12.47
2019-05-19T06:03:02.061Z,10.83
2019-05-19T06:08:06.883Z,11.53
2019-05-19T06:13:11.718Z,11.57
2019-05-19T06:18:16.553Z,12.73
2019-05-19T06:23:21.329Z,12.30
2019-05-19T06:28:38.332Z,13.00
2019-05-19T06:33:43.181Z,12.73
2019-05-19T06:38:48.024Z,12.67
2019-05-19T06:43:52.978Z,11.23
2019-05-19T06:48:57.741Z,11.80
2019-05-19T06:54:02.581Z,14.20
2019-05-19T06:59:08.038Z,12.27
2019-05-19T07:04:12.873Z,12.57
2019-05-19T07:09:17.708Z,13.57
2019-05-19T07:14:22.483Z,13.63
2019-05-19T07:19:27.324Z,13.90
2019-05-19T07:24:32.148Z,14.00
2019-05-19T07:29:36.984Z,13.97
2019-05-19T07:34:41.842Z,13.97
2019-05-19T07:39:46.604Z,14.27
2019-05-19T07:44:51.556Z,14.37
2019-05-19T07:49:56.407Z,14.37
2019-05-19T07:55:01.246Z,14.07
2019-05-19T08:00:08.448Z,12.87
2019-05-19T08:05:13.430Z,13.33
2019-05-19T08:10:18.373Z,10.90
2019-05-19T08:15:23.232Z,12.70
2019-05-19T08:20:28.082Z,12.07
2019-05-19T08:25:32.908Z,12.07
2019-05-19T08:30:37.746Z,11.60
2019-05-19T08:35:42.506Z,11.17
2019-05-19T08:40:47.389Z,10.90
2019-05-19T08:45:52.193Z,10.40
2019-05-19T08:50:57.082Z,11.10
2019-05-19T08:56:01.881Z,10.60
2019-05-19T09:01:06.716Z,13.13
2019-05-19T09:06:11.563Z,10.23
2019-05-19T09:11:16.403Z,12.27
2019-05-19T09:16:21.243Z,12.40
2019-05-19T09:21:26.112Z,8.87
2019-05-19T09:26:32.043Z,8.30
2019-05-19T09:31:36.885Z,8.70
2019-05-19T09:36:41.645Z,8.60
2019-05-19T09:41:46.486Z,7.90
2019-05-19T09:46:51.368Z,7.23
2019-05-19T09:51:56.208Z,7.97
2019-05-19T09:57:01.057Z,6.17
2019-05-19T10:02:05.888Z,7.33
2019-05-19T10:07:10.828Z,5.40
2019-05-19T10:12:15.624Z,6.03
2019-05-19T10:17:20.454Z,6.17
2019-05-19T10:22:25.285Z,6.77
2019-05-19T10:27:30.105Z,7.30
2019-05-19T10:32:34.936Z,6.27
2019-05-19T10:37:39.761Z,6.10
2019-05-19T10:42:44.597Z,6.10
2019-05-19T10:47:49.516Z,5.60
2019-05-19T10:52:54.366Z,5.60
2019-05-19T10:57:59.211Z,5.37
2019-05-19T11:03:04.046Z,4.60
2019-05-19T11:08:08.865Z,4.13
2019-05-19T11:13:13.697Z,5.07
2019-05-19T11:18:18.532Z,3.53
2019-05-19T11:23:23.373Z,3.97
2019-05-19T11:28:28.134Z,3.77
2019-05-19T11:33:32.885Z,3.73
2019-05-19T11:38:37.712Z,3.43
2019-05-19T11:43:42.551Z,2.90
2019-05-19T11:48:47.481Z,3.80
2019-05-19T11:53:52.236Z,3.67
2019-05-19T11:58:57.084Z,3.60
2019-05-19T12:04:01.936Z,4.30
2019-05-19T12:09:07.369Z,4.30
2019-05-19T12:14:12.226Z,4.13
2019-05-19T12:19:17.077Z,4.50
2019-05-19T12:24:21.929Z,3.43
2019-05-19T12:29:26.785Z,4.70
2019-05-19T12:34:31.556Z,4.33
2019-05-19T12:39:37.107Z,5.23
2019-05-19T12:44:41.964Z,4.20
2019-05-19T12:49:47.159Z,4.43
2019-05-19T12:54:51.952Z,4.57
2019-05-19T12:59:57.265Z,4.17
2019-05-19T13:05:05.327Z,5.20
2019-05-19T13:10:09.114Z,4.93
2019-05-19T13:15:15.688Z,5.33
2019-05-19T13:20:20.875Z,5.77
2019-05-19T13:25:25.745Z,6.03
2019-05-19T13:30:30.602Z,6.07
2019-05-19T13:35:35.453Z,5.40
2019-05-19T13:40:40.377Z,6.40
2019-05-19T13:45:45.203Z,6.40
2019-05-19T13:50:50.440Z,6.37
2019-05-19T13:55:55.334Z,5.30
2019-05-19T14:01:00.198Z,5.80
2019-05-19T14:06:05.041Z,5.30
2019-05-19T14:11:09.904Z,4.70
2019-05-19T14:16:14.756Z,5.57
2019-05-19T14:21:19.605Z,5.40
2019-05-19T14:26:24.469Z,5.40
2019-05-19T14:31:29.347Z,6.27
2019-05-19T14:36:34.301Z,5.57
2019-05-19T14:41:40.793Z,8.27
2019-05-19T14:46:45.661Z,5.53
2019-05-19T14:51:51.094Z,5.43
2019-05-19T14:56:55.961Z,5.20
2019-05-19T15:02:00.813Z,5.43
2019-05-19T15:07:05.952Z,5.77
2019-05-19T15:12:10.821Z,6.50
2019-05-19T15:17:15.603Z,5.27
2019-05-19T15:22:20.455Z,5.80
2019-05-19T15:27:25.230Z,5.80
2019-05-19T15:32:29.982Z,6.57
2019-05-19T15:37:34.814Z,5.40
2019-05-19T15:42:39.643Z,6.27
2019-05-19T15:47:44.474Z,7.20
2019-05-19T15:52:49.353Z,7.90
2019-05-19T15:57:54.195Z,6.43
2019-05-19T16:02:59.033Z,8.47
2019-05-19T16:08:03.915Z,6.53
2019-05-19T16:13:08.854Z,6.90
2019-05-19T16:18:13.698Z,6.03
2019-05-19T16:23:18.532Z,7.93
2019-05-19T16:28:30.369Z,10.23
2019-05-19T16:33:29.736Z,7.00
2019-05-19T16:38:34.493Z,9.00
2019-05-19T16:43:39.340Z,7.27
2019-05-19T16:48:44.165Z,6.97
2019-05-19T16:53:51.588Z,6.77
2019-05-19T16:58:56.430Z,7.60
2019-05-19T17:04:01.265Z,7.60
2019-05-19T17:09:06.377Z,8.00
2019-05-19T17:14:11.205Z,7.67
2019-05-19T17:19:16.073Z,8.27
2019-05-19T17:24:20.839Z,8.43
2019-05-19T17:29:25.672Z,8.33
2019-05-19T17:34:30.362Z,8.20
2019-05-19T17:39:35.197Z,9.20
2019-05-19T17:44:39.888Z,8.67
2019-05-19T17:49:44.727Z,8.97
2019-05-19T17:54:50.188Z,8.47
2019-05-19T17:59:56.025Z,12.00
2019-05-19T18:05:00.985Z,10.90
2019-05-19T18:10:06.987Z,9.90
2019-05-19T18:15:11.828Z,8.00
2019-05-19T18:20:23.645Z,9.40
2019-05-19T18:25:23.127Z,8.67
2019-05-19T18:30:27.955Z,9.07
2019-05-19T18:35:32.793Z,9.83
2019-05-19T18:40:37.629Z,9.33
2019-05-19T18:45:42.417Z,9.20
2019-05-19T18:50:47.237Z,10.17
2019-05-19T18:55:52.194Z,10.17
2019-05-19T19:00:58.515Z,9.23
2019-05-19T19:06:03.338Z,9.27
2019-05-19T19:11:08.245Z,10.17
2019-05-19T19:16:13.090Z,11.80
2019-05-19T19:21:17.941Z,13.20
2019-05-19T19:26:23.207Z,11.40
2019-05-19T19:31:28.050Z,12.13
2019-05-19T19:36:32.882Z,12.00
2019-05-19T19:41:38.650Z,10.40
2019-05-19T19:46:43.346Z,9.90
2019-05-19T19:51:48.108Z,9.70
2019-05-19T19:56:53.127Z,10.07
2019-05-19T20:01:57.965Z,10.83
2019-05-19T20:07:02.805Z,10.87
2019-05-19T20:12:09.277Z,11.10
2019-05-19T20:17:14.043Z,10.03
2019-05-19T20:22:18.882Z,10.37
2019-05-19T20:27:25.226Z,10.57
2019-05-19T20:32:29.978Z,10.37
2019-05-19T20:37:34.825Z,11.67
2019-05-19T20:42:39.664Z,9.80
2019-05-19T20:47:44.502Z,9.87
2019-05-19T20:52:49.329Z,10.60
2019-05-19T20:57:54.308Z,11.17
2019-05-19T21:02:59.149Z,10.27
2019-05-19T21:08:03.985Z,10.53
2019-05-19T21:13:08.825Z,11.03
2019-05-19T21:18:13.664Z,9.87
2019-05-19T21:23:18.510Z,10.33
2019-05-19T21:28:23.270Z,10.40
2019-05-19T21:33:28.114Z,10.77
2019-05-19T21:38:33.121Z,11.93
2019-05-19T21:43:37.967Z,10.20
2019-05-19T21:48:42.805Z,10.27
2019-05-19T21:53:48.940Z,11.30
2019-05-19T21:58:53.886Z,11.70
2019-05-19T22:03:58.796Z,11.57
2019-05-19T22:09:05.197Z,11.20
2019-05-19T22:14:10.042Z,10.37
2019-05-19T22:19:15.935Z,11.87
2019-05-19T22:24:20.894Z,10.90
2019-05-19T22:29:25.671Z,12.10
2019-05-19T22:34:30.510Z,12.13
2019-05-19T22:39:35.344Z,12.30
2019-05-19T22:44:40.117Z,13.17
2019-05-19T22:49:44.957Z,12.43
2019-05-19T22:54:49.815Z,13.97
2019-05-19T22:59:54.621Z,15.93
2019-05-19T23:04:59.378Z,15.20
2019-05-19T23:10:05.772Z,15.30
2019-05-19T23:15:11.083Z,16.17
2019-05-19T23:20:16.019Z,14.13
2019-05-19T23:25:20.881Z,14.83
2019-05-19T23:30:25.624Z,13.30
2019-05-19T23:35:30.456Z,14.63
2019-05-19T23:40:35.300Z,15.23
2019-05-19T23:45:40.133Z,15.90
2019-05-19T23:50:44.971Z,15.43
2019-05-19T23:55:49.809Z,15.50
